Hauptseite
METAR-TAF:

METAR-TAF

Flughäfen :

Flughafen Ibiza

Ibiza, Spanien

Breite: 38-52N, Länge: 001-23E, Höhe: 7 m

Beobachtung

Neuester Wetterbericht von vor 12 Minuten, um 19:30 UTC
Wind 3 kt aus Nord/Nordwest
Temperatur 9°C
Luftfeuchtigkeit 87%
Luftdruck 1026 hPa
Sichtweite 10 km oder mehr
Leicht bewölkt in der Höhe von 2200 ft

METAR: LEIB 201930Z 33003KT 9999 FEW022 09/07 Q1026 NOSIG

Zeit: 20:42 (19:42 UTC)

Prognose

Neuester Wetterbericht von vor 5 Stunden und 42 Minuten, um 14:00 UTC
Gültige Prognose vom 20 um 15 UTC bis 21 um 15 UTC
Wind 7 kt aus Ost/Südost
Sichtweite 10 km oder mehr
Leicht bewölkt in der Höhe von 1000 ft
Aufgelockert bewölkt in der Höhe von 2000 ft
Übergehend zu
vom 21 um 00 UTC bis 21 um 02 UTC
Wind 9 kt aus Nord/Nordost

TAF: LEIB 201400Z 2015/2115 12007KT 9999 FEW010 SCT020 TX16/2113Z TN08/2106Z BECMG 2100/2102 03009KT

Wetterbeobachtungen und Prognosen von mehr als 4000 Flughäfen (METAR und TAF Bericht).

Die verfügbaren Stationen werden durch gelbe und rote Markierungen auf der Karte dargestellt.

Führen Sie die Maus auf sie, um den Namen der Station zu sehen.

Darauf klicken, um die Beobachtung von Wetterbeobachtungen und Prognosen zu sehen.

Um die Karte zu ändern : klicken Sie auf den grünen Tasten mit einem schwarzen Kreuz Zum Vergrößern, auf den grünen Button mit einem Gedankenstrich zu verkleinern, oder auf die grünen Pfeile für benachbarte Karten.


METAR-TAF: